Time;durP1;ratioP1;P1;durP2;ratioP2;P2;SDS_P1;SDS_P2;PMS_P1;PMS_P2;Temp;Humidity;BMP_temperature;BMP_pressure;BME280_temperature;BME280_humidity;BME280_pressure;Samples;Min_cycle;Max_cycle;Signal;HPM_P1;HPM_P2
2022/06/26 00:00:33;;;;;;;;;;;;;;;27.77;36.98;100558.19;5095569;28;1035;-24
2022/06/26 00:02:59;;;;;;;;;;;;;;;27.71;37.17;100556.25;5095561;28;1075;-24
2022/06/26 00:05:24;;;;;;;;;;;;;;;27.75;36.92;100546.72;5095594;28;1965;-22
2022/06/26 00:07:49;;;;;;;;;;;;;;;27.72;36.78;100547.09;5086067;28;948;-22
2022/06/26 00:10:15;;;;;;;;;;;;;;;27.74;37.02;100548.56;5084730;28;1059;-23
2022/06/26 00:12:40;;;;;;;;;;;;;;;27.73;37.16;100549.63;5095346;28;1071;-23
2022/06/26 00:15:06;;;;;;;;;;;;;;;27.68;37.05;100548.47;5095815;28;1450;-23
2022/06/26 00:17:31;;;;;;;;;;;;;;;27.71;36.97;100546.25;5095767;28;1155;-22
2022/06/26 00:19:57;;;;;;;;;;;;;;;27.69;36.85;100550.19;5085757;28;946;-23
2022/06/26 00:22:22;;;;;;;;;;;;;;;27.75;36.66;100554.81;5091828;28;863;-23
2022/06/26 00:24:47;;;;;;;;;;;;;;;27.73;36.60;100559.56;5095294;28;1969;-23
2022/06/26 00:27:12;;;;;;;;;;;;;;;27.73;36.77;100557.72;5095785;28;953;-24
2022/06/26 00:29:38;;;;;;;;;;;;;;;27.74;36.80;100553.97;5082273;28;992;-23
2022/06/26 00:32:03;;;;;;;;;;;;;;;27.75;36.88;100560.22;5095563;28;960;-23
2022/06/26 00:34:29;;;;;;;;;;;;;;;27.70;36.75;100558.09;5093699;28;1099;-23
2022/06/26 00:36:54;;;;;;;;;;;;;;;27.72;36.54;100549.81;5091511;28;960;-23
2022/06/26 00:39:19;;;;;;;;;;;;;;;27.70;36.80;100551.84;5095511;28;1174;-23
2022/06/26 00:41:45;;;;;;;;;;;;;;;27.72;37.10;100553.34;5095550;28;956;-23
2022/06/26 00:44:14;;;;;;;;;;;;;;;27.72;36.75;100560.63;5082132;28;1910;-23
2022/06/26 00:46:39;;;;;;;;;;;;;;;27.69;36.98;100551.03;5082267;28;949;-23
2022/06/26 00:49:04;;;;;;;;;;;;;;;27.75;36.61;100558.38;5094429;28;892;-23
2022/06/26 00:51:30;;;;;;;;;;;;;;;27.69;36.56;100551.03;5092742;28;1059;-22
2022/06/26 00:53:55;;;;;;;;;;;;;;;27.75;36.51;100549.41;5095792;28;1026;-23
2022/06/26 00:56:20;;;;;;;;;;;;;;;27.75;36.79;100552.97;5093253;28;1221;-23
2022/06/26 00:58:46;;;;;;;;;;;;;;;27.73;36.66;100549.63;5083794;28;973;-23
2022/06/26 01:01:11;;;;;;;;;;;;;;;27.72;36.69;100552.50;5084026;28;1074;-22
2022/06/26 01:03:36;;;;;;;;;;;;;;;27.72;36.51;100557.91;5094837;28;1228;-23
2022/06/26 01:06:03;;;;;;;;;;;;;;;27.69;36.75;100553.75;5091047;28;1905;-23
2022/06/26 01:08:28;;;;;;;;;;;;;;;27.71;36.60;100548.97;5121743;28;1052;-23
2022/06/26 01:10:53;;;;;;;;;;;;;;;27.75;36.49;100554.81;5095345;28;1119;-22
2022/06/26 01:13:19;;;;;;;;;;;;;;;27.73;36.89;100554.16;5124852;28;984;-23
2022/06/26 01:15:44;;;;;;;;;;;;;;;27.72;36.73;100550.66;5124997;28;1182;-22
2022/06/26 01:18:09;;;;;;;;;;;;;;;27.71;36.62;100557.06;5095266;28;1427;-24
2022/06/26 01:20:34;;;;;;;;;;;;;;;27.74;36.54;100553.16;5094009;28;992;-22
2022/06/26 01:23:01;;;;;;;;;;;;;;;27.73;36.56;100548.78;5095153;28;944;-24
2022/06/26 01:25:26;;;;;;;;;;;;;;;27.73;36.57;100548.78;5093741;28;1897;-22
2022/06/26 01:27:51;;;;;;;;;;;;;;;27.73;36.42;100551.47;5095199;28;1111;-22
2022/06/26 01:30:17;;;;;;;;;;;;;;;27.75;36.64;100547.56;5098572;28;965;-22
2022/06/26 01:32:42;;;;;;;;;;;;;;;27.69;36.32;100561.00;5099047;28;1154;-22
2022/06/26 01:35:07;;;;;;;;;;;;;;;27.72;36.44;100556.06;5131099;27;1043;-22
2022/06/26 01:37:33;;;;;;;;;;;;;;;27.71;36.17;100548.97;5098333;28;962;-22
2022/06/26 01:39:58;;;;;;;;;;;;;;;27.70;36.41;100557.25;5092541;28;940;-22
2022/06/26 01:42:23;;;;;;;;;;;;;;;27.69;36.64;100548.34;5098511;28;1386;-22
2022/06/26 01:44:48;;;;;;;;;;;;;;;27.72;36.63;100550.66;5084470;28;1898;-23
2022/06/26 01:47:14;;;;;;;;;;;;;;;27.68;36.29;100546.66;5098615;28;996;-22
2022/06/26 01:49:39;;;;;;;;;;;;;;;27.72;36.34;100553.34;5098262;28;1003;-22
2022/06/26 01:52:04;;;;;;;;;;;;;;;27.74;36.44;100547.75;5095512;28;908;-22
2022/06/26 01:54:30;;;;;;;;;;;;;;;27.71;36.42;100551.66;5097874;28;1020;-23
2022/06/26 01:56:55;;;;;;;;;;;;;;;27.69;36.41;100545.63;5085359;28;1031;-22
2022/06/26 01:59:20;;;;;;;;;;;;;;;27.78;36.26;100553.63;5098186;28;1028;-23
2022/06/26 02:01:45;;;;;;;;;;;;;;;27.75;36.27;100552.13;5098543;28;1158;-23
2022/06/26 02:04:16;;;;;;;;;;;;;;;27.72;36.46;100555.22;5095534;28;1914;-22
2022/06/26 02:06:41;;;;;;;;;;;;;;;27.71;36.57;100553.56;5085968;28;1123;-22
2022/06/26 02:13:35;;;;;;;;;;;;;;;27.70;36.17;100549.16;5097289;28;1271;-22
2022/06/26 02:14:35;;;;;;;;;;;;;;;27.69;36.32;100544.78;5086107;28;961;-23
2022/06/26 02:17:01;;;;;;;;;;;;;;;27.70;36.14;100552.69;5091103;28;1114;-22
2022/06/26 02:19:26;;;;;;;;;;;;;;;27.71;36.03;100548.97;5098220;28;1012;-23
2022/06/26 02:21:51;;;;;;;;;;;;;;;27.71;36.27;100553.56;5096613;28;913;-22
2022/06/26 02:24:17;;;;;;;;;;;;;;;27.72;36.44;100563.31;5097367;28;1894;-22
2022/06/26 02:26:42;;;;;;;;;;;;;;;27.70;36.11;100570.78;5097454;28;1027;-22
2022/06/26 02:29:07;;;;;;;;;;;;;;;27.72;36.10;100569.56;5097371;28;1189;-24
2022/06/26 02:31:32;;;;;;;;;;;;;;;27.72;36.05;100566.03;5097771;28;1453;-22
2022/06/26 02:33:58;;;;;;;;;;;;;;;27.76;36.31;100570.00;5097364;28;1038;-22
2022/06/26 02:36:23;;;;;;;;;;;;;;;27.77;35.96;100566.28;5097093;28;1135;-23
2022/06/26 02:38:48;;;;;;;;;;;;;;;27.75;36.18;100566.47;5097203;28;1055;-23
2022/06/26 02:41:13;;;;;;;;;;;;;;;27.72;36.07;100574.13;5097620;28;1202;-22
2022/06/26 02:43:39;;;;;;;;;;;;;;;27.69;36.37;100575.38;5089986;28;847;-22
2022/06/26 02:46:04;;;;;;;;;;;;;;;27.71;36.32;100575.97;5097011;28;1906;-22
2022/06/26 02:48:29;;;;;;;;;;;;;;;27.69;36.34;100574.53;5097657;28;984;-22
2022/06/26 02:50:55;;;;;;;;;;;;;;;27.73;36.33;100573.09;5095313;28;1071;-22
2022/06/26 02:53:20;;;;;;;;;;;;;;;27.74;36.13;100578.31;5096577;28;1151;-22
2022/06/26 02:55:45;;;;;;;;;;;;;;;27.76;36.11;100586.22;5097055;28;889;-23
2022/06/26 02:58:11;;;;;;;;;;;;;;;27.70;36.31;100590.53;5096453;28;1205;-23
2022/06/26 03:00:36;;;;;;;;;;;;;;;27.69;36.40;100580.78;5097110;28;1115;-23
2022/06/26 03:03:02;;;;;;;;;;;;;;;27.74;36.39;100591.00;5097198;28;1216;-25
2022/06/26 03:05:28;;;;;;;;;;;;;;;27.69;35.74;100586.19;5096288;28;1979;-23
2022/06/26 03:07:56;;;;;;;;;;;;;;;27.72;36.15;100595.75;5080488;28;1048;-24
2022/06/26 03:10:21;;;;;;;;;;;;;;;27.73;35.92;100590.16;5092101;28;988;-23
2022/06/26 03:12:46;;;;;;;;;;;;;;;27.71;36.24;100588.69;5096563;28;995;-24
2022/06/26 03:15:12;;;;;;;;;;;;;;;27.73;36.27;100594.72;5097089;28;968;-23
2022/06/26 03:17:37;;;;;;;;;;;;;;;27.66;36.16;100591.91;5096781;28;1202;-23
2022/06/26 03:20:03;;;;;;;;;;;;;;;27.61;36.88;100592.47;5095572;28;1433;-25
2022/06/26 03:22:28;;;;;;;;;;;;;;;27.60;36.72;100596.22;5095954;28;966;-24
2022/06/26 03:24:53;;;;;;;;;;;;;;;27.73;36.37;100592.00;5096398;28;1894;-25
2022/06/26 03:27:19;;;;;;;;;;;;;;;27.73;36.06;100598.25;5096188;28;1011;-28
2022/06/26 03:29:44;;;;;;;;;;;;;;;27.26;36.62;100589.56;5096727;28;1058;-27
2022/06/26 03:32:09;;;;;;;;;;;;;;;27.00;36.73;100593.56;5080350;28;1246;-27
2022/06/26 03:34:35;;;;;;;;;;;;;;;27.12;36.82;100600.22;5085778;28;873;-25
2022/06/26 03:37:00;;;;;;;;;;;;;;;27.11;36.85;100597.69;5096167;28;977;-28
2022/06/26 03:39:25;;;;;;;;;;;;;;;27.07;36.06;100601.78;5095132;28;1186;-27
2022/06/26 03:42:08;;;;;;;;;;;;;;;26.98;35.38;100601.00;5096304;28;1019;-27
2022/06/26 03:44:34;;;;;;;;;;;;;;;26.62;35.99;100599.84;5078693;28;1902;-26
2022/06/26 03:46:59;;;;;;;;;;;;;;;26.54;35.73;100606.16;5083034;28;1436;-26
2022/06/26 03:49:24;;;;;;;;;;;;;;;26.46;36.60;100606.25;5092518;28;1531;-27
2022/06/26 03:51:49;;;;;;;;;;;;;;;26.41;37.35;100604.91;5092010;28;1270;-27
2022/06/26 03:54:15;;;;;;;;;;;;;;;26.31;38.64;100612.38;5085555;28;1142;-26
2022/06/26 03:56:40;;;;;;;;;;;;;;;26.35;37.91;100605.66;5093124;28;1151;-26
2022/06/26 03:59:05;;;;;;;;;;;;;;;26.07;38.22;100600.78;5080399;28;1530;-26
2022/06/26 04:01:31;;;;;;;;;;;;;;;26.40;37.44;100605.94;5077054;28;1095;-26
2022/06/26 04:03:56;;;;;;;;;;;;;;;26.53;37.48;100609.88;5087072;28;1206;-26
2022/06/26 04:06:22;;;;;;;;;;;;;;;26.54;37.87;100614.25;5080924;28;1955;-27
2022/06/26 04:08:47;;;;;;;;;;;;;;;26.52;38.45;100613.59;5080373;28;1205;-24
2022/06/26 04:11:13;;;;;;;;;;;;;;;26.52;38.94;100610.91;5082080;28;1047;-26
2022/06/26 04:13:38;;;;;;;;;;;;;;;26.55;39.31;100618.63;5090461;28;1424;-25
2022/06/26 04:16:04;;;;;;;;;;;;;;;26.51;39.92;100622.69;5076889;28;952;-26
2022/06/26 04:18:29;;;;;;;;;;;;;;;26.47;40.17;100614.16;5082467;28;1036;-28
2022/06/26 04:20:54;;;;;;;;;;;;;;;26.47;40.71;100618.69;5088079;28;953;-25
2022/06/26 04:23:19;;;;;;;;;;;;;;;26.40;41.47;100614.03;5082453;28;945;-27
2022/06/26 04:25:45;;;;;;;;;;;;;;;26.38;41.35;100617.91;5082672;28;1964;-26
2022/06/26 04:28:10;;;;;;;;;;;;;;;26.27;41.44;100616.47;5081154;28;976;-25
2022/06/26 04:30:36;;;;;;;;;;;;;;;25.60;41.20;100511.81;5079318;28;1044;-25
2022/06/26 04:33:01;;;;;;;;;;;;;;;26.28;40.80;100618.13;5080542;28;1167;-26
2022/06/26 04:35:27;;;;;;;;;;;;;;;26.27;41.09;100624.56;5080472;28;1164;-27
2022/06/26 04:37:52;;;;;;;;;;;;;;;26.24;40.53;100633.00;5083032;28;1202;-28
2022/06/26 04:40:17;;;;;;;;;;;;;;;26.26;40.22;100639.03;5079170;28;1031;-25
2022/06/26 04:42:42;;;;;;;;;;;;;;;26.21;40.62;100634.19;5088152;28;1019;-27
2022/06/26 04:45:09;;;;;;;;;;;;;;;26.19;40.57;100630.84;5085580;28;1898;-25
2022/06/26 04:47:35;;;;;;;;;;;;;;;26.14;40.34;100627.84;5081504;28;1063;-28
2022/06/26 04:50:00;;;;;;;;;;;;;;;26.20;40.80;100628.97;5084110;28;1150;-27
2022/06/26 04:52:25;;;;;;;;;;;;;;;26.17;40.28;100624.81;5081486;28;1091;-27
2022/06/26 04:54:51;;;;;;;;;;;;;;;26.14;40.78;100625.97;5081761;28;1178;-25
2022/06/26 04:57:16;;;;;;;;;;;;;;;26.05;40.99;100629.75;5084650;28;1083;-28
2022/06/26 04:59:43;;;;;;;;;;;;;;;26.42;40.09;100640.81;5083047;28;1138;-22
2022/06/26 05:02:08;;;;;;;;;;;;;;;26.82;38.85;100631.69;5088759;28;1466;-23
2022/06/26 05:04:34;;;;;;;;;;;;;;;26.96;38.71;100630.06;5097776;28;1915;-23
2022/06/26 05:06:59;;;;;;;;;;;;;;;27.08;38.13;100630.44;5098512;28;1255;-23
2022/06/26 05:09:24;;;;;;;;;;;;;;;27.12;38.41;100632.59;5098908;28;1142;-23
2022/06/26 05:11:50;;;;;;;;;;;;;;;27.17;38.20;100634.75;5098707;28;1289;-23
2022/06/26 05:14:15;;;;;;;;;;;;;;;27.23;38.14;100636.69;5096081;28;1106;-23
2022/06/26 05:16:40;;;;;;;;;;;;;;;27.29;37.69;100632.41;5098366;28;1040;-23
2022/06/26 05:19:06;;;;;;;;;;;;;;;27.33;37.77;100635.56;5098715;28;1245;-23
2022/06/26 05:21:31;;;;;;;;;;;;;;;27.33;37.97;100638.25;5088223;28;984;-23
2022/06/26 05:23:56;;;;;;;;;;;;;;;27.42;37.44;100639.00;5083369;28;1115;-23
2022/06/26 05:26:22;;;;;;;;;;;;;;;27.45;37.81;100644.88;5080881;28;1898;-23
2022/06/26 05:28:47;;;;;;;;;;;;;;;27.48;37.79;100649.06;5088663;28;1222;-23
2022/06/26 05:31:13;;;;;;;;;;;;;;;27.48;37.49;100652.59;5079313;28;1403;-23
2022/06/26 05:33:38;;;;;;;;;;;;;;;27.46;37.54;100646.53;5089529;28;1332;-23
2022/06/26 05:36:03;;;;;;;;;;;;;;;27.50;37.71;100644.31;5098112;28;1265;-23
2022/06/26 05:38:29;;;;;;;;;;;;;;;27.54;37.31;100633.97;5120954;27;1257;-23
2022/06/26 05:40:54;;;;;;;;;;;;;;;27.52;37.57;100644.97;5094898;28;1301;-23
2022/06/26 05:43:19;;;;;;;;;;;;;;;27.54;37.70;100636.66;5097493;28;1348;-23
2022/06/26 05:45:45;;;;;;;;;;;;;;;27.54;37.50;100647.47;5098082;28;1946;-23
2022/06/26 05:48:10;;;;;;;;;;;;;;;27.59;37.55;100639.66;5098221;28;1364;-23
2022/06/26 05:50:35;;;;;;;;;;;;;;;27.60;37.75;100642.16;5096482;28;1201;-23
2022/06/26 05:53:01;;;;;;;;;;;;;;;27.58;37.71;100651.47;5095375;28;1249;-23
2022/06/26 05:55:26;;;;;;;;;;;;;;;27.59;37.61;100650.44;5081081;28;1032;-23
2022/06/26 05:57:51;;;;;;;;;;;;;;;27.60;37.70;100646.72;5093159;28;1241;-24
2022/06/26 06:00:17;;;;;;;;;;;;;;;27.53;38.16;100651.22;5092633;28;1074;-24
2022/06/26 06:02:42;;;;;;;;;;;;;;;27.57;38.06;100653.34;5078760;28;1044;-25
2022/06/26 06:05:08;;;;;;;;;;;;;;;27.69;36.86;100651.03;5082807;28;1906;-22
2022/06/26 06:07:33;;;;;;;;;;;;;;;27.79;36.36;100647.19;5081575;28;1009;-23
2022/06/26 06:09:58;;;;;;;;;;;;;;;27.88;37.03;100651.44;5079476;28;1036;-23
2022/06/26 06:12:23;;;;;;;;;;;;;;;27.83;37.31;100651.16;5078929;28;1166;-23
2022/06/26 06:14:49;;;;;;;;;;;;;;;27.81;36.31;100648.66;5084671;28;957;-23
2022/06/26 06:19:58;;;;;;;;;;;;;;;27.75;37.14;100652.97;5087295;28;850;-23
2022/06/26 06:22:23;;;;;;;;;;;;;;;27.91;37.68;100656.44;5089069;28;804;-27
2022/06/26 06:24:48;;;;;;;;;;;;;;;27.89;37.63;100644.16;5092967;28;1893;-23
2022/06/26 06:27:14;;;;;;;;;;;;;;;27.87;37.21;100652.47;5081415;28;1048;-23
2022/06/26 06:29:39;;;;;;;;;;;;;;;27.74;38.17;100645.88;5082807;28;1063;-23
2022/06/26 06:32:05;;;;;;;;;;;;;;;27.82;37.85;100646.78;5079928;28;985;-23
2022/06/26 06:34:30;;;;;;;;;;;;;;;27.90;37.34;100651.25;5094144;28;1214;-23
2022/06/26 06:36:55;;;;;;;;;;;;;;;27.90;37.67;100645.84;5096955;28;1241;-23
2022/06/26 06:39:21;;;;;;;;;;;;;;;27.88;37.98;100643.31;5096746;28;1182;-25
2022/06/26 06:41:46;;;;;;;;;;;;;;;27.90;37.74;100649.38;5097367;28;1312;-23
2022/06/26 06:44:11;;;;;;;;;;;;;;;27.80;37.52;100641.59;5096824;28;1961;-23
2022/06/26 06:46:36;;;;;;;;;;;;;;;27.95;37.72;100655.06;5096528;28;1316;-23
2022/06/26 06:49:02;;;;;;;;;;;;;;;27.95;37.46;100651.50;5096850;28;1233;-23
2022/06/26 06:51:27;;;;;;;;;;;;;;;28.02;37.55;100638.91;5096821;28;1253;-23
2022/06/26 06:53:52;;;;;;;;;;;;;;;28.02;37.62;100640.75;5092739;28;1312;-23
2022/06/26 06:56:18;;;;;;;;;;;;;;;27.95;37.64;100646.09;5096629;28;1261;-23
2022/06/26 06:58:43;;;;;;;;;;;;;;;27.94;37.29;100650.69;5096856;28;1186;-23
2022/06/26 07:01:08;;;;;;;;;;;;;;;27.94;37.43;100655.25;5096290;28;1158;-23
2022/06/26 07:03:33;;;;;;;;;;;;;;;28.02;37.52;100646.19;5096333;28;1139;-23
2022/06/26 07:05:59;;;;;;;;;;;;;;;28.02;37.32;100643.47;5096506;28;1969;-23
2022/06/26 07:08:24;;;;;;;;;;;;;;;27.99;37.86;100636.59;5089651;28;1313;-23
2022/06/26 07:10:49;;;;;;;;;;;;;;;28.03;37.74;100643.28;5095277;28;1257;-23
2022/06/26 07:13:14;;;;;;;;;;;;;;;28.09;37.41;100639.78;5096844;28;1238;-23
2022/06/26 07:15:40;;;;;;;;;;;;;;;28.09;37.76;100641.69;5096350;28;1040;-23
2022/06/26 07:18:05;;;;;;;;;;;;;;;28.09;37.40;100639.78;5096796;28;1210;-24
2022/06/26 07:20:30;;;;;;;;;;;;;;;28.13;37.76;100636.72;5094407;28;1237;-23
2022/06/26 07:22:56;;;;;;;;;;;;;;;28.14;37.46;100644.66;5096053;28;1284;-23
2022/06/26 07:25:21;;;;;;;;;;;;;;;28.13;37.70;100639.44;5093124;28;1965;-23
2022/06/26 07:27:47;;;;;;;;;;;;;;;28.20;37.26;100643.88;5095732;28;1393;-23
2022/06/26 07:30:12;;;;;;;;;;;;;;;28.30;37.43;100643.53;5095571;28;1269;-23
2022/06/26 07:32:37;;;;;;;;;;;;;;;28.32;37.09;100646.06;5092323;28;1528;-23
2022/06/26 07:35:03;;;;;;;;;;;;;;;28.31;36.76;100636.28;5090417;28;960;-23
2022/06/26 07:37:29;;;;;;;;;;;;;;;28.27;37.22;100634.97;5085810;28;1044;-23
2022/06/26 07:39:54;;;;;;;;;;;;;;;28.33;36.71;100636.94;5083897;28;1198;-23
2022/06/26 07:42:20;;;;;;;;;;;;;;;28.38;36.90;100639.91;5084950;28;1182;-23
2022/06/26 07:44:45;;;;;;;;;;;;;;;28.41;36.65;100641.38;5095905;28;1894;-24
2022/06/26 07:47:10;;;;;;;;;;;;;;;28.36;36.67;100634.69;5093409;28;1296;-23
2022/06/26 07:49:35;;;;;;;;;;;;;;;28.36;36.75;100640.09;5095692;28;989;-24
2022/06/26 07:52:01;;;;;;;;;;;;;;;28.39;36.41;100647.00;5095565;28;1064;-23
2022/06/26 07:54:26;;;;;;;;;;;;;;;28.40;36.33;100645.94;5092534;28;1472;-23
2022/06/26 07:56:51;;;;;;;;;;;;;;;28.47;36.43;100643.31;5095984;28;1159;-23
2022/06/26 07:59:17;;;;;;;;;;;;;;;28.40;36.71;100653.22;5095985;28;1205;-23
2022/06/26 08:01:42;;;;;;;;;;;;;;;28.56;36.27;100663.78;5094822;28;1241;-23
2022/06/26 08:04:07;;;;;;;;;;;;;;;28.54;36.18;100652.34;5095964;28;1988;-23
2022/06/26 08:06:33;;;;;;;;;;;;;;;28.59;35.93;100659.84;5095025;28;1369;-23
2022/06/26 08:08:58;;;;;;;;;;;;;;;28.52;35.94;100664.38;5093284;28;1308;-23
2022/06/26 08:11:24;;;;;;;;;;;;;;;28.59;35.87;100660.69;5095280;28;1035;-23
2022/06/26 08:13:49;;;;;;;;;;;;;;;28.62;35.66;100664.03;5095372;28;1483;-23
2022/06/26 08:16:14;;;;;;;;;;;;;;;28.64;35.69;100665.53;5090065;28;2397;-23
2022/06/26 08:18:40;;;;;;;;;;;;;;;28.69;35.51;100662.22;5083987;28;1939;-23
2022/06/26 08:23:49;;;;;;;;;;;;;;;28.73;35.30;100663.50;5082780;28;2650;-23
2022/06/26 08:26:14;;;;;;;;;;;;;;;28.70;35.23;100663.88;5086073;28;1969;-23
2022/06/26 08:28:40;;;;;;;;;;;;;;;28.82;35.27;100662.34;5089731;28;2002;-23
2022/06/26 08:31:05;;;;;;;;;;;;;;;28.78;35.16;100654.81;5089858;28;2185;-23
2022/06/26 08:33:30;;;;;;;;;;;;;;;28.75;35.41;100660.59;5080351;28;1294;-23
2022/06/26 08:35:56;;;;;;;;;;;;;;;28.74;35.26;100659.78;5083390;28;1024;-23
2022/06/26 08:38:21;;;;;;;;;;;;;;;28.72;35.25;100662.69;5087728;28;987;-23
2022/06/26 08:40:46;;;;;;;;;;;;;;;28.69;35.35;100662.22;5092642;28;1008;-23
2022/06/26 08:43:12;;;;;;;;;;;;;;;28.73;35.32;100664.34;5094116;28;1546;-23
2022/06/26 08:45:37;;;;;;;;;;;;;;;28.78;34.89;100655.63;5130345;27;1901;-23
2022/06/26 08:48:02;;;;;;;;;;;;;;;28.89;34.50;100661.53;5125901;27;1530;-24
2022/06/26 08:50:28;;;;;;;;;;;;;;;28.93;34.76;100665.50;5121840;27;1182;-24
2022/06/26 08:52:53;;;;;;;;;;;;;;;28.86;34.76;100657.38;5120017;27;951;-24
2022/06/26 08:55:19;;;;;;;;;;;;;;;28.93;34.76;100660.94;5095061;28;1068;-23
2022/06/26 08:57:45;;;;;;;;;;;;;;;29.02;34.57;100668.94;5080515;28;1066;-24
2022/06/26 09:00:10;;;;;;;;;;;;;;;28.91;34.83;100667.59;5112991;27;1222;-24
2022/06/26 09:02:36;;;;;;;;;;;;;;;28.84;34.99;100667.56;5086437;28;2554;-23
2022/06/26 09:05:01;;;;;;;;;;;;;;;28.84;35.18;100670.25;5085742;28;1985;-23
2022/06/26 09:07:26;;;;;;;;;;;;;;;28.92;35.03;100667.41;5091899;28;1015;-24
2022/06/26 09:09:52;;;;;;;;;;;;;;;28.93;35.33;100666.34;5086275;28;1051;-23
2022/06/26 09:12:17;;;;;;;;;;;;;;;28.88;35.30;100671.53;5083462;28;1099;-24
2022/06/26 09:14:43;;;;;;;;;;;;;;;28.99;35.07;100674.75;5083434;28;984;-24
2022/06/26 09:17:09;;;;;;;;;;;;;;;28.95;35.60;100675.13;5090823;28;1028;-23
2022/06/26 09:19:36;;;;;;;;;;;;;;;28.98;35.62;100673.09;5083644;28;1079;-23
2022/06/26 09:22:11;;;;;;;;;;;;;;;28.96;35.00;100678.69;5089505;28;1437;-23
2022/06/26 09:24:37;;;;;;;;;;;;;;;28.92;35.49;100675.53;5080171;28;1959;-23
2022/06/26 09:27:03;;;;;;;;;;;;;;;29.04;35.17;100664.16;5084006;28;1514;-23
2022/06/26 09:29:29;;;;;;;;;;;;;;;29.14;35.01;100671.94;5098625;28;1146;-23
2022/06/26 09:31:54;;;;;;;;;;;;;;;29.23;34.63;100673.44;5097531;28;2466;-23
2022/06/26 09:34:20;;;;;;;;;;;;;;;29.07;34.99;100675.44;5098658;28;1040;-23
2022/06/26 09:36:56;;;;;;;;;;;;;;;29.09;34.57;100675.25;5088073;28;1202;-23
2022/06/26 09:39:22;;;;;;;;;;;;;;;29.17;34.77;100671.53;5085257;28;1471;-23
2022/06/26 09:41:47;;;;;;;;;;;;;;;29.18;34.77;100667.78;5094749;28;1036;-22
2022/06/26 09:44:19;;;;;;;;;;;;;;;28.39;34.86;100560.44;5094105;28;1905;-23
2022/06/26 09:46:44;;;;;;;;;;;;;;;29.08;35.04;100673.56;5085275;28;980;-23
2022/06/26 09:49:09;;;;;;;;;;;;;;;29.21;34.79;100679.06;5088393;28;945;-23
2022/06/26 09:51:35;;;;;;;;;;;;;;;29.20;34.52;100676.56;5125047;27;1027;-23
2022/06/26 09:54:00;;;;;;;;;;;;;;;29.25;34.68;100674.09;5091223;28;1358;-24
2022/06/26 09:56:25;;;;;;;;;;;;;;;29.13;35.12;100667.56;5124319;27;1332;-23
2022/06/26 09:58:54;;;;;;;;;;;;;;;29.02;35.29;100671.66;5088147;28;1441;-23
2022/06/26 10:06:47;;;;;;;;;;;;;;;29.03;35.07;100654.38;5118104;27;1080;-22
2022/06/26 10:09:13;;;;;;;;;;;;;;;29.12;35.06;100652.34;5097438;28;1265;-24
2022/06/26 10:11:39;;;;;;;;;;;;;;;29.11;35.06;100658.78;5098194;28;1230;-23
2022/06/26 10:14:10;;;;;;;;;;;;;;;29.19;34.94;100655.94;5097527;28;1265;-23
2022/06/26 10:16:35;;;;;;;;;;;;;;;29.17;35.41;100658.00;5118991;27;1221;-23
2022/06/26 10:19:19;;;;;;;;;;;;;;;29.15;34.94;100655.50;5095755;28;1297;-24
2022/06/26 10:21:45;;;;;;;;;;;;;;;29.15;35.09;100654.63;5097070;28;1305;-24
2022/06/26 10:24:10;;;;;;;;;;;;;;;29.19;34.62;100655.94;5097351;28;1210;-25
2022/06/26 10:26:35;;;;;;;;;;;;;;;29.05;35.17;100652.28;5096953;28;1962;-23
2022/06/26 10:29:05;;;;;;;;;;;;;;;29.02;35.22;100658.09;5096107;28;1411;-23
2022/06/26 10:31:31;;;;;;;;;;;;;;;29.16;34.49;100654.44;5095258;28;2386;-22
2022/06/26 10:34:07;;;;;;;;;;;;;;;29.23;34.75;100654.47;5093805;28;1325;-23
2022/06/26 10:36:33;;;;;;;;;;;;;;;29.18;35.27;100659.66;5094956;28;1210;-23
2022/06/26 10:39:05;;;;;;;;;;;;;;;29.15;35.43;100652.78;5097224;28;1282;-22
2022/06/26 10:44:21;;;;;;;;;;;;;;;29.38;34.62;100651.63;5096805;28;1963;-22
2022/06/26 10:46:46;;;;;;;;;;;;;;;29.45;34.67;100663.34;5114393;27;1508;-24
2022/06/26 10:49:11;;;;;;;;;;;;;;;29.38;34.03;100659.78;5096512;28;1143;-23
2022/06/26 10:51:40;;;;;;;;;;;;;;;29.43;33.74;100657.28;5094579;28;1496;-23
2022/06/26 10:54:16;;;;;;;;;;;;;;;29.30;33.73;100657.22;5095984;28;1158;-23
2022/06/26 10:56:41;;;;;;;;;;;;;;;29.23;33.47;100665.31;5094480;28;1170;-23
2022/06/26 10:59:06;;;;;;;;;;;;;;;29.16;33.30;100667.16;5117942;27;1197;-23
2022/06/26 11:01:32;;;;;;;;;;;;;;;29.12;33.49;100663.16;5092647;28;2418;-22
2022/06/26 11:03:58;;;;;;;;;;;;;;;29.15;33.01;100669.03;5096539;28;1220;-25
2022/06/26 11:06:24;;;;;;;;;;;;;;;29.14;33.44;100663.81;5117791;27;1893;-22
2022/06/26 11:08:50;;;;;;;;;;;;;;;29.25;32.77;100663.25;5096653;28;1146;-23
2022/06/26 11:11:17;;;;;;;;;;;;;;;29.12;33.29;100657.75;5096395;28;1020;-23
2022/06/26 11:14:01;;;;;;;;;;;;;;;29.20;33.13;100655.72;5096277;28;1260;-24
2022/06/26 11:16:30;;;;;;;;;;;;;;;29.24;32.86;100644.50;5094157;28;1250;-23
2022/06/26 11:18:56;;;;;;;;;;;;;;;29.29;32.90;100652.84;5096843;28;1229;-23
2022/06/26 11:21:21;;;;;;;;;;;;;;;29.36;32.47;100656.44;5096394;28;1257;-22
2022/06/26 11:23:51;;;;;;;;;;;;;;;29.38;32.25;100656.25;5096294;28;1317;-23
2022/06/26 11:26:16;;;;;;;;;;;;;;;29.25;32.53;100652.41;5093663;28;1959;-23
2022/06/26 11:28:42;;;;;;;;;;;;;;;29.29;32.40;100658.28;5114031;27;1258;-22
2022/06/26 11:31:09;;;;;;;;;;;;;;;29.21;33.04;100651.16;5095478;28;2623;-22
2022/06/26 11:33:36;;;;;;;;;;;;;;;29.33;32.90;100663.09;5096210;28;1241;-22
2022/06/26 11:36:02;;;;;;;;;;;;;;;29.32;32.55;100644.31;5094559;28;1206;-23
2022/06/26 11:38:27;;;;;;;;;;;;;;;29.25;32.72;100651.56;5093708;28;1186;-22
2022/06/26 11:40:53;;;;;;;;;;;;;;;29.27;32.71;100654.91;5096162;28;1068;-23
2022/06/26 11:43:19;;;;;;;;;;;;;;;29.30;32.87;100665.34;5122870;27;1204;-23
2022/06/26 11:45:44;;;;;;;;;;;;;;;29.32;32.84;100658.72;5082679;28;1898;-23
2022/06/26 11:48:13;;;;;;;;;;;;;;;29.39;32.66;100666.03;5083209;28;1072;-23
2022/06/26 11:50:38;;;;;;;;;;;;;;;29.30;32.74;100660.78;5119786;27;988;-22
2022/06/26 11:53:04;;;;;;;;;;;;;;;29.38;32.53;100661.66;5096039;28;1175;-23
2022/06/26 11:55:30;;;;;;;;;;;;;;;29.40;32.64;100670.41;5091105;28;960;-22
2022/06/26 11:57:55;;;;;;;;;;;;;;;29.53;32.32;100665.06;5080476;28;1064;-23
2022/06/26 12:00:21;;;;;;;;;;;;;;;29.68;31.93;100659.50;5080352;28;1052;-23
2022/06/26 12:02:47;;;;;;;;;;;;;;;29.54;32.16;100671.31;5083217;28;2668;-23
2022/06/26 12:05:12;;;;;;;;;;;;;;;29.58;32.52;100673.41;5079900;28;2008;-22
2022/06/26 12:07:41;;;;;;;;;;;;;;;29.48;32.58;100669.41;5087938;28;1305;-23
2022/06/26 12:10:07;;;;;;;;;;;;;;;29.50;32.45;100668.16;5082722;28;1479;-23
2022/06/26 12:12:32;;;;;;;;;;;;;;;29.63;32.27;100664.72;5079475;28;1052;-24
2022/06/26 12:14:57;;;;;;;;;;;;;;;29.65;32.21;100659.94;5093427;28;1205;-23
2022/06/26 12:17:23;;;;;;;;;;;;;;;29.68;32.33;100669.50;5095656;28;1245;-24
2022/06/26 12:19:48;;;;;;;;;;;;;;;29.78;32.30;100671.88;5093342;28;1277;-23
2022/06/26 12:22:14;;;;;;;;;;;;;;;29.69;32.51;100665.78;5092527;28;1460;-25
2022/06/26 12:24:49;;;;;;;;;;;;;;;29.64;32.76;100679.09;5116479;28;1963;-23
2022/06/26 12:27:14;;;;;;;;;;;;;;;29.65;32.69;100672.63;5095436;28;1127;-23
2022/06/26 12:29:39;;;;;;;;;;;;;;;29.72;32.50;100676.22;5115849;28;1111;-23
2022/06/26 12:32:05;;;;;;;;;;;;;;;29.56;32.96;100680.91;5093419;28;2518;-24
2022/06/26 12:34:30;;;;;;;;;;;;;;;29.57;32.70;100674.47;5092843;28;1574;-23
2022/06/26 12:36:56;;;;;;;;;;;;;;;29.60;32.97;100677.81;5083566;28;1440;-23
2022/06/26 12:39:21;;;;;;;;;;;;;;;29.67;32.60;100676.84;5095598;28;1162;-23
2022/06/26 12:41:46;;;;;;;;;;;;;;;29.73;32.63;100677.88;5114925;28;1370;-22
2022/06/26 12:44:11;;;;;;;;;;;;;;;29.68;32.57;100669.50;5092383;28;1079;-24
2022/06/26 12:46:37;;;;;;;;;;;;;;;29.61;33.03;100674.09;5090945;28;1874;-23
2022/06/26 12:49:02;;;;;;;;;;;;;;;29.60;32.83;100667.81;5095310;28;1212;-23
2022/06/26 12:51:28;;;;;;;;;;;;;;;29.61;32.88;100668.66;5095604;28;1091;-23
2022/06/26 12:53:53;;;;;;;;;;;;;;;29.60;32.94;100667.81;5094682;28;1555;-24
2022/06/26 12:56:19;;;;;;;;;;;;;;;29.55;33.23;100672.97;5094996;28;1099;-23